createdAt,value
2018-10-07T00:00:47.820Z,1003.38
2018-10-07T00:01:47.819Z,1003.42
2018-10-07T00:02:47.810Z,1003.44
2018-10-07T00:03:47.816Z,1003.49
2018-10-07T00:04:47.807Z,1003.47
2018-10-07T00:05:47.803Z,1003.51
2018-10-07T00:06:47.792Z,1003.47
2018-10-07T00:07:47.790Z,1003.47
2018-10-07T00:08:47.786Z,1003.46
2018-10-07T00:09:47.782Z,1003.48
2018-10-07T00:10:47.777Z,1003.51
2018-10-07T00:11:47.771Z,1003.54
2018-10-07T00:12:47.764Z,1003.57
2018-10-07T00:13:47.763Z,1003.64
2018-10-07T00:14:47.761Z,1003.66
2018-10-07T00:15:47.752Z,1003.71
2018-10-07T00:16:47.745Z,1003.77
2018-10-07T00:17:47.756Z,1003.77
2018-10-07T00:18:47.741Z,1003.82
2018-10-07T00:19:47.735Z,1003.81
2018-10-07T00:20:47.731Z,1003.90
2018-10-07T00:21:47.724Z,1003.96
2018-10-07T00:22:47.714Z,1003.97
2018-10-07T00:23:47.716Z,1004.02
2018-10-07T00:24:47.707Z,1004.02
2018-10-07T00:25:47.712Z,1004.07
2018-10-07T00:26:47.713Z,1004.05
2018-10-07T00:27:47.700Z,1004.09
2018-10-07T00:28:47.690Z,1004.02
2018-10-07T00:29:47.685Z,1004.06
2018-10-07T00:30:47.681Z,1004.03
2018-10-07T00:31:47.678Z,1004.07
2018-10-07T00:32:47.675Z,1004.06
2018-10-07T00:33:47.670Z,1004.09
2018-10-07T00:34:47.665Z,1004.14
2018-10-07T00:35:47.651Z,1004.13
2018-10-07T00:36:47.656Z,1004.12
2018-10-07T00:37:47.644Z,1004.13
2018-10-07T00:38:47.641Z,1004.17
2018-10-07T00:39:47.636Z,1004.14
2018-10-07T00:40:47.637Z,1004.12
2018-10-07T00:41:47.633Z,1004.22
2018-10-07T00:42:47.624Z,1004.25
2018-10-07T00:43:47.616Z,1004.28
2018-10-07T00:44:47.612Z,1004.31
2018-10-07T00:45:47.650Z,1004.35
2018-10-07T00:46:47.602Z,1004.30
2018-10-07T00:47:47.604Z,1004.34
2018-10-07T00:48:47.600Z,1004.33
2018-10-07T00:49:47.589Z,1004.35
2018-10-07T00:50:47.588Z,1004.37
2018-10-07T00:51:47.580Z,1004.40
2018-10-07T00:52:47.575Z,1004.45
2018-10-07T00:53:47.570Z,1004.51
2018-10-07T00:54:47.570Z,1004.53
2018-10-07T00:55:47.560Z,1004.53
2018-10-07T00:56:47.560Z,1004.62
2018-10-07T00:57:47.550Z,1004.59
2018-10-07T00:58:47.546Z,1004.65
2018-10-07T00:59:47.540Z,1004.64
2018-10-07T01:00:47.537Z,1004.65
2018-10-07T01:01:47.533Z,1004.65
2018-10-07T01:02:47.525Z,1004.67
2018-10-07T01:03:47.524Z,1004.69
2018-10-07T01:04:47.515Z,1004.68
2018-10-07T01:05:47.517Z,1004.72
2018-10-07T01:06:47.528Z,1004.73
2018-10-07T01:07:47.507Z,1004.70
2018-10-07T01:08:47.495Z,1004.74
2018-10-07T01:09:47.494Z,1004.79
2018-10-07T01:10:47.489Z,1004.80
2018-10-07T01:11:47.482Z,1004.83
2018-10-07T01:12:47.479Z,1004.88
2018-10-07T01:13:47.475Z,1004.81
2018-10-07T01:14:47.473Z,1004.89
2018-10-07T01:15:47.467Z,1004.92
2018-10-07T01:16:47.469Z,1004.92
2018-10-07T01:17:47.457Z,1004.93
2018-10-07T01:18:47.452Z,1004.93
2018-10-07T01:19:47.440Z,1004.98
2018-10-07T01:20:47.443Z,1005.00
2018-10-07T01:21:47.433Z,1005.08
2018-10-07T01:22:47.438Z,1005.11
2018-10-07T01:23:47.426Z,1005.06
2018-10-07T01:24:47.417Z,1005.09
2018-10-07T01:25:47.418Z,1005.07
2018-10-07T01:26:47.406Z,1005.02
2018-10-07T01:27:47.405Z,1005.04
2018-10-07T01:28:47.398Z,1005.01
2018-10-07T01:29:47.402Z,1005.08
2018-10-07T01:30:47.412Z,1005.08
2018-10-07T01:31:47.400Z,1005.12
2018-10-07T01:32:47.382Z,1005.13
2018-10-07T01:33:47.375Z,1005.13
2018-10-07T01:34:47.366Z,1005.18
2018-10-07T01:35:47.368Z,1005.18
2018-10-07T01:36:47.370Z,1005.21
2018-10-07T01:37:47.354Z,1005.18
2018-10-07T01:38:47.353Z,1005.11
2018-10-07T01:39:47.349Z,1005.14
2018-10-07T01:40:47.343Z,1005.15
2018-10-07T01:41:47.335Z,1005.18
2018-10-07T01:42:47.332Z,1005.23
2018-10-07T01:43:47.325Z,1005.20
2018-10-07T01:44:47.319Z,1005.26
2018-10-07T01:45:47.314Z,1005.26
2018-10-07T01:46:47.322Z,1005.27
2018-10-07T01:47:47.309Z,1005.27
2018-10-07T01:48:47.299Z,1005.28
2018-10-07T01:49:47.302Z,1005.36
2018-10-07T01:50:47.289Z,1005.33
2018-10-07T01:51:47.292Z,1005.31
2018-10-07T01:52:47.280Z,1005.36
2018-10-07T01:53:47.284Z,1005.36
2018-10-07T01:54:47.269Z,1005.39
2018-10-07T01:55:47.269Z,1005.39
2018-10-07T01:56:47.263Z,1005.44
2018-10-07T01:57:47.258Z,1005.48
2018-10-07T01:58:47.264Z,1005.43
2018-10-07T01:59:47.254Z,1005.49
2018-10-07T02:00:47.247Z,1005.52
2018-10-07T02:01:47.241Z,1005.51
2018-10-07T02:02:47.233Z,1005.53
2018-10-07T02:03:47.226Z,1005.52
2018-10-07T02:04:47.249Z,1005.63
2018-10-07T02:05:47.220Z,1005.66
2018-10-07T02:06:47.215Z,1005.68
2018-10-07T02:07:47.217Z,1005.73
2018-10-07T02:08:47.205Z,1005.74
2018-10-07T02:09:47.205Z,1005.71
2018-10-07T02:10:47.192Z,1005.75
2018-10-07T02:11:47.198Z,1005.77
2018-10-07T02:12:47.187Z,1005.87
2018-10-07T02:13:47.193Z,1005.89
2018-10-07T02:14:47.178Z,1005.87
2018-10-07T02:15:47.175Z,1005.93
2018-10-07T02:16:47.162Z,1006.01
2018-10-07T02:17:47.160Z,1006.01
2018-10-07T02:18:47.167Z,1006.00
2018-10-07T02:19:47.169Z,1006.00
2018-10-07T02:20:47.148Z,1006.06
2018-10-07T02:21:47.140Z,1006.07
2018-10-07T02:22:47.142Z,1006.08
2018-10-07T02:23:47.130Z,1006.04
2018-10-07T02:24:47.125Z,1006.10
2018-10-07T02:25:47.119Z,1006.15
2018-10-07T02:26:47.116Z,1006.12
2018-10-07T02:27:47.104Z,1006.12
2018-10-07T02:28:47.111Z,1006.14
2018-10-07T02:29:47.095Z,1006.16
2018-10-07T02:30:47.098Z,1006.14
2018-10-07T02:31:47.088Z,1006.11
2018-10-07T02:32:47.091Z,1006.11
2018-10-07T02:33:47.076Z,1006.11
2018-10-07T02:34:47.078Z,1006.12
2018-10-07T02:35:47.069Z,1006.13
2018-10-07T02:36:47.060Z,1006.18
2018-10-07T02:37:47.060Z,1006.28
2018-10-07T02:38:47.051Z,1006.35
2018-10-07T02:39:47.061Z,1006.38
2018-10-07T02:40:47.041Z,1006.40
2018-10-07T02:41:47.040Z,1006.35
2018-10-07T02:42:47.033Z,1006.31
2018-10-07T02:43:47.029Z,1006.28
2018-10-07T02:44:47.019Z,1006.29
2018-10-07T02:45:47.021Z,1006.23
2018-10-07T02:46:47.004Z,1006.23
2018-10-07T02:47:47.003Z,1006.25
2018-10-07T02:48:46.996Z,1006.27
2018-10-07T02:49:46.997Z,1006.36
2018-10-07T02:50:46.989Z,1006.40
2018-10-07T02:51:46.978Z,1006.45
2018-10-07T02:52:46.971Z,1006.58
2018-10-07T02:53:46.970Z,1006.67
2018-10-07T02:54:46.963Z,1006.69
2018-10-07T02:55:46.959Z,1006.75
2018-10-07T02:56:46.958Z,1006.80
2018-10-07T02:57:46.949Z,1006.83
2018-10-07T02:58:46.941Z,1006.82
2018-10-07T02:59:46.932Z,1006.84
2018-10-07T03:00:46.929Z,1006.81
2018-10-07T03:01:46.922Z,1006.84
2018-10-07T03:02:46.914Z,1006.87
2018-10-07T03:03:46.918Z,1006.88
2018-10-07T03:04:46.965Z,1006.86
2018-10-07T03:05:46.900Z,1006.96
2018-10-07T03:06:46.896Z,1006.96
2018-10-07T03:07:46.885Z,1006.97
2018-10-07T03:08:46.875Z,1007.04
2018-10-07T03:09:46.872Z,1007.00
2018-10-07T03:10:46.870Z,1007.04
2018-10-07T03:11:46.865Z,1007.04
2018-10-07T03:12:46.854Z,1007.05
2018-10-07T03:13:46.850Z,1007.08
2018-10-07T03:14:46.843Z,1007.11
2018-10-07T03:15:46.836Z,1007.14
2018-10-07T03:16:46.828Z,1007.19
2018-10-07T03:17:46.829Z,1007.13
2018-10-07T03:18:46.826Z,1007.16
2018-10-07T03:19:46.817Z,1007.23
2018-10-07T03:20:46.845Z,1007.24
2018-10-07T03:21:46.797Z,1007.29
2018-10-07T03:22:46.794Z,1007.31
2018-10-07T03:23:46.784Z,1007.30
2018-10-07T03:24:46.782Z,1007.33
2018-10-07T03:25:46.777Z,1007.34
2018-10-07T03:27:01.468Z,1007.45
2018-10-07T03:27:46.768Z,1007.45
2018-10-07T03:28:46.756Z,1007.48
2018-10-07T03:29:46.751Z,1007.50
2018-10-07T03:30:46.742Z,1007.51
2018-10-07T03:31:46.744Z,1007.51
2018-10-07T03:32:46.728Z,1007.56
2018-10-07T03:33:46.722Z,1007.53
2018-10-07T03:34:46.715Z,1007.54
2018-10-07T03:35:46.711Z,1007.53
2018-10-07T03:36:46.706Z,1007.54
2018-10-07T03:37:46.706Z,1007.61
2018-10-07T03:38:46.696Z,1007.58
2018-10-07T03:39:46.695Z,1007.59
2018-10-07T03:40:46.680Z,1007.49
2018-10-07T03:41:46.716Z,1007.65
2018-10-07T03:42:46.665Z,1007.71
2018-10-07T03:43:46.661Z,1007.69
2018-10-07T03:44:46.654Z,1007.74
2018-10-07T03:45:46.646Z,1007.71
2018-10-07T03:46:46.641Z,1007.82
2018-10-07T03:47:46.634Z,1007.83
2018-10-07T03:48:46.626Z,1007.76
2018-10-07T03:49:46.618Z,1007.81
2018-10-07T03:50:46.616Z,1007.80
2018-10-07T03:51:46.610Z,1007.84
2018-10-07T03:52:46.602Z,1007.84
2018-10-07T03:53:46.597Z,1007.88
2018-10-07T03:54:46.584Z,1007.83
2018-10-07T03:55:46.585Z,1007.93
2018-10-07T03:56:46.573Z,1007.85
2018-10-07T03:57:46.569Z,1007.92
2018-10-07T03:58:46.558Z,1007.90
2018-10-07T03:59:46.553Z,1007.87
2018-10-07T04:00:46.549Z,1007.89
2018-10-07T04:01:46.543Z,1007.90
2018-10-07T04:02:46.530Z,1007.93
2018-10-07T04:03:46.526Z,1007.96
2018-10-07T04:04:46.516Z,1007.90
2018-10-07T04:05:46.513Z,1007.94
2018-10-07T04:06:46.509Z,1007.93
2018-10-07T04:07:46.499Z,1007.95
2018-10-07T04:08:46.497Z,1007.98
2018-10-07T04:09:46.487Z,1008.00
2018-10-07T04:10:46.472Z,1008.00
2018-10-07T04:11:46.471Z,1008.00
2018-10-07T04:12:46.464Z,1007.98
2018-10-07T04:13:46.454Z,1008.09
2018-10-07T04:14:46.451Z,1008.09
2018-10-07T04:15:46.437Z,1008.10
2018-10-07T04:16:46.433Z,1008.12
2018-10-07T04:17:46.431Z,1008.18
2018-10-07T04:18:46.419Z,1008.10
2018-10-07T04:19:46.413Z,1008.08
2018-10-07T04:20:46.410Z,1008.13
2018-10-07T04:21:46.400Z,1008.20
2018-10-07T04:22:46.397Z,1008.19
2018-10-07T04:23:46.388Z,1008.19
2018-10-07T04:24:46.382Z,1008.19
2018-10-07T04:25:46.401Z,1008.14
2018-10-07T04:26:46.363Z,1008.17
2018-10-07T04:27:46.360Z,1008.20
2018-10-07T04:28:46.352Z,1008.16
2018-10-07T04:29:46.347Z,1008.16
2018-10-07T04:30:46.337Z,1008.19
2018-10-07T04:31:46.332Z,1008.10
2018-10-07T04:32:46.321Z,1008.23
2018-10-07T04:33:46.314Z,1008.18
2018-10-07T04:34:46.305Z,1008.19
2018-10-07T04:35:46.302Z,1008.20
2018-10-07T04:36:46.297Z,1008.24
2018-10-07T04:37:46.293Z,1008.24
2018-10-07T04:38:46.282Z,1008.23
2018-10-07T04:39:46.300Z,1008.22
2018-10-07T04:40:46.271Z,1008.29
2018-10-07T04:41:46.262Z,1008.24
2018-10-07T04:42:46.271Z,1008.33
2018-10-07T04:43:46.272Z,1008.26
2018-10-07T04:44:46.238Z,1008.26
2018-10-07T04:45:46.236Z,1008.27
2018-10-07T04:46:46.218Z,1008.32
2018-10-07T04:47:46.211Z,1008.28
2018-10-07T04:48:46.205Z,1008.34
2018-10-07T04:49:46.198Z,1008.38
2018-10-07T04:50:46.193Z,1008.33
2018-10-07T04:51:46.189Z,1008.39
2018-10-07T04:52:46.175Z,1008.40
2018-10-07T04:53:46.170Z,1008.36
2018-10-07T04:54:46.162Z,1008.41
2018-10-07T04:55:46.153Z,1008.39
2018-10-07T04:56:46.150Z,1008.36
2018-10-07T04:57:46.142Z,1008.37
2018-10-07T04:58:46.136Z,1008.38
2018-10-07T04:59:46.127Z,1008.43
2018-10-07T05:00:46.122Z,1008.38
2018-10-07T05:01:46.117Z,1008.38
2018-10-07T05:02:46.103Z,1008.44
2018-10-07T05:03:46.097Z,1008.50
2018-10-07T05:04:46.096Z,1008.48
2018-10-07T05:05:46.085Z,1008.50
2018-10-07T05:06:46.079Z,1008.57
2018-10-07T05:07:46.072Z,1008.57
2018-10-07T05:08:46.064Z,1008.60
2018-10-07T05:09:46.054Z,1008.64
2018-10-07T05:10:46.045Z,1008.62
2018-10-07T05:11:46.043Z,1008.66
2018-10-07T05:12:46.132Z,1008.69
2018-10-07T05:13:46.028Z,1008.71
2018-10-07T05:14:46.016Z,1008.72
2018-10-07T05:15:46.009Z,1008.77
2018-10-07T05:16:46.007Z,1008.80
2018-10-07T05:17:45.999Z,1008.80
2018-10-07T05:18:45.995Z,1008.85
2018-10-07T05:19:45.981Z,1008.83
2018-10-07T05:20:45.982Z,1008.84
2018-10-07T05:21:45.967Z,1008.87
2018-10-07T05:22:45.958Z,1008.93
2018-10-07T05:23:45.949Z,1008.96
2018-10-07T05:24:45.943Z,1008.96
2018-10-07T05:25:45.938Z,1009.04
2018-10-07T05:26:45.928Z,1009.07
2018-10-07T05:27:45.924Z,1009.03
2018-10-07T05:28:45.927Z,1009.10
2018-10-07T05:29:45.907Z,1009.13
2018-10-07T05:30:45.902Z,1009.20
2018-10-07T05:31:45.889Z,1009.25
2018-10-07T05:32:45.907Z,1009.26
2018-10-07T05:33:45.899Z,1009.21
2018-10-07T05:34:45.872Z,1009.25
2018-10-07T05:35:45.868Z,1009.29
2018-10-07T05:36:45.857Z,1009.32
2018-10-07T05:37:45.853Z,1009.33
2018-10-07T05:38:45.842Z,1009.35
2018-10-07T05:39:45.839Z,1009.35
2018-10-07T05:40:45.832Z,1009.38
2018-10-07T05:41:45.818Z,1009.43
2018-10-07T05:42:45.815Z,1009.44
2018-10-07T05:43:45.808Z,1009.48
2018-10-07T05:44:45.816Z,1009.47
2018-10-07T05:45:45.789Z,1009.46
2018-10-07T05:46:45.778Z,1009.48
2018-10-07T05:47:45.772Z,1009.50
2018-10-07T05:48:45.778Z,1009.52
2018-10-07T05:49:45.763Z,1009.55
2018-10-07T05:50:45.757Z,1009.59
2018-10-07T05:51:45.744Z,1009.59
2018-10-07T05:52:45.737Z,1009.58
2018-10-07T05:53:45.730Z,1009.59
2018-10-07T05:54:45.727Z,1009.60
2018-10-07T05:55:45.795Z,1009.63
2018-10-07T05:56:45.710Z,1009.71
2018-10-07T05:57:45.704Z,1009.66
2018-10-07T05:58:45.691Z,1009.74
2018-10-07T05:59:45.690Z,1009.76
2018-10-07T06:00:45.679Z,1009.80
2018-10-07T06:01:45.756Z,1009.85
2018-10-07T06:02:45.667Z,1009.89
2018-10-07T06:03:45.663Z,1009.99
2018-10-07T06:04:45.654Z,1009.91
2018-10-07T06:05:45.640Z,1009.89
2018-10-07T06:06:45.632Z,1010.05
2018-10-07T06:07:45.628Z,1009.99
2018-10-07T06:08:45.620Z,1010.00
2018-10-07T06:09:45.633Z,1010.00
2018-10-07T06:10:45.608Z,1010.05
2018-10-07T06:11:45.598Z,1010.13
2018-10-07T06:12:45.588Z,1010.15
2018-10-07T06:13:45.581Z,1010.17
2018-10-07T06:14:45.582Z,1010.22
2018-10-07T06:15:45.572Z,1010.25
2018-10-07T06:16:45.558Z,1010.28
2018-10-07T06:17:45.555Z,1010.32
2018-10-07T06:18:45.552Z,1010.31
2018-10-07T06:19:45.551Z,1010.38
2018-10-07T06:20:45.529Z,1010.38
2018-10-07T06:21:45.523Z,1010.43
2018-10-07T06:22:45.514Z,1010.38
2018-10-07T06:23:45.517Z,1010.44
2018-10-07T06:24:45.508Z,1010.49
2018-10-07T06:25:45.497Z,1010.51
2018-10-07T06:26:45.488Z,1010.49
2018-10-07T06:27:45.479Z,1010.56
2018-10-07T06:28:45.477Z,1010.56
2018-10-07T06:29:45.532Z,1010.59
2018-10-07T06:30:45.455Z,1010.60
2018-10-07T06:31:45.453Z,1010.67
2018-10-07T06:32:45.445Z,1010.65
2018-10-07T06:33:45.438Z,1010.72
2018-10-07T06:34:45.426Z,1010.71
2018-10-07T06:35:45.421Z,1010.69
2018-10-07T06:36:45.414Z,1010.68
2018-10-07T06:37:45.403Z,1010.67
2018-10-07T06:38:45.463Z,1010.73
2018-10-07T06:39:45.442Z,1010.67
2018-10-07T06:40:45.383Z,1010.65
2018-10-07T06:41:45.375Z,1010.72
2018-10-07T06:42:45.367Z,1010.73
2018-10-07T06:43:45.361Z,1010.79
2018-10-07T06:44:45.353Z,1010.81
2018-10-07T06:45:45.436Z,1010.85
2018-10-07T06:46:45.349Z,1010.86
2018-10-07T06:47:45.337Z,1010.87
2018-10-07T06:48:45.327Z,1010.90
2018-10-07T06:49:45.320Z,1010.91
2018-10-07T06:50:45.315Z,1010.94
2018-10-07T06:51:45.302Z,1010.95
2018-10-07T06:52:45.298Z,1010.98
2018-10-07T06:53:45.298Z,1011.01
2018-10-07T06:54:45.286Z,1011.05
2018-10-07T06:55:45.280Z,1011.04
2018-10-07T06:56:45.267Z,1011.06
2018-10-07T06:57:45.264Z,1011.06
2018-10-07T06:58:45.276Z,1011.16
2018-10-07T06:59:45.297Z,1011.22
2018-10-07T07:00:45.247Z,1011.18
2018-10-07T07:01:45.249Z,1011.24
2018-10-07T07:02:45.228Z,1011.22
2018-10-07T07:03:45.220Z,1011.26
2018-10-07T07:04:45.217Z,1011.32
2018-10-07T07:05:45.204Z,1011.31
2018-10-07T07:06:45.236Z,1011.37
2018-10-07T07:07:45.190Z,1011.40
2018-10-07T07:08:45.184Z,1011.37
2018-10-07T07:09:45.182Z,1011.39
2018-10-07T07:10:45.165Z,1011.39
2018-10-07T07:11:45.161Z,1011.49
2018-10-07T07:12:45.158Z,1011.43
2018-10-07T07:13:45.150Z,1011.44
2018-10-07T07:14:45.139Z,1011.46
2018-10-07T07:15:45.142Z,1011.47
2018-10-07T07:16:45.125Z,1011.49
2018-10-07T07:17:45.116Z,1011.49
2018-10-07T07:18:45.110Z,1011.45
2018-10-07T07:19:45.115Z,1011.47
2018-10-07T07:20:45.096Z,1011.49
2018-10-07T07:21:45.088Z,1011.50
2018-10-07T07:22:45.096Z,1011.52
2018-10-07T07:23:45.073Z,1011.55
2018-10-07T07:24:45.068Z,1011.53
2018-10-07T07:25:45.062Z,1011.54
2018-10-07T07:26:45.059Z,1011.54
2018-10-07T07:27:45.046Z,1011.52
2018-10-07T07:28:45.048Z,1011.56
2018-10-07T07:29:45.035Z,1011.56
2018-10-07T07:30:45.035Z,1011.55
2018-10-07T07:31:45.018Z,1011.56
2018-10-07T07:32:45.018Z,1011.53
2018-10-07T07:33:45.012Z,1011.54
2018-10-07T07:34:45.011Z,1011.57
2018-10-07T07:35:44.996Z,1011.52
2018-10-07T07:36:45.009Z,1011.52
2018-10-07T07:37:44.994Z,1011.53
2018-10-07T07:38:44.967Z,1011.52
2018-10-07T07:39:44.964Z,1011.56
2018-10-07T07:40:44.953Z,1011.62
2018-10-07T07:41:44.943Z,1011.60
2018-10-07T07:42:44.944Z,1011.58
2018-10-07T07:43:44.949Z,1011.61
2018-10-07T07:44:44.948Z,1011.63
2018-10-07T07:45:44.914Z,1011.64
2018-10-07T07:46:44.926Z,1011.66
2018-10-07T07:47:44.901Z,1011.66
2018-10-07T07:48:44.888Z,1011.62
2018-10-07T07:49:44.889Z,1011.58
2018-10-07T07:50:44.880Z,1011.60
2018-10-07T07:51:44.882Z,1011.63
2018-10-07T07:52:44.861Z,1011.63
2018-10-07T07:53:44.899Z,1011.73
2018-10-07T07:54:44.853Z,1011.77
2018-10-07T07:55:44.854Z,1011.81
2018-10-07T07:56:44.829Z,1011.80
2018-10-07T07:57:44.828Z,1011.86
2018-10-07T07:58:44.831Z,1011.88
2018-10-07T07:59:44.823Z,1011.90
2018-10-07T08:00:44.828Z,1011.94
2018-10-07T08:01:44.822Z,1011.90
2018-10-07T08:02:44.788Z,1011.96
2018-10-07T08:03:44.782Z,1012.00
2018-10-07T08:04:44.777Z,1011.99
2018-10-07T08:05:44.773Z,1012.01
2018-10-07T08:06:44.760Z,1012.02
2018-10-07T08:07:44.749Z,1011.99
2018-10-07T08:08:44.766Z,1012.04
2018-10-07T08:09:44.733Z,1012.11
2018-10-07T08:10:44.723Z,1012.14
2018-10-07T08:11:44.718Z,1012.17
2018-10-07T08:12:44.724Z,1012.22
2018-10-07T08:13:44.705Z,1012.23
2018-10-07T08:14:44.695Z,1012.31
2018-10-07T08:15:44.691Z,1012.27
2018-10-07T08:16:44.684Z,1012.27
2018-10-07T08:17:44.800Z,1012.26
2018-10-07T08:18:44.667Z,1012.25
2018-10-07T08:19:44.659Z,1012.31
2018-10-07T08:20:44.656Z,1012.28
2018-10-07T08:21:44.648Z,1012.35
2018-10-07T08:22:44.639Z,1012.36
2018-10-07T08:23:44.654Z,1012.38
2018-10-07T08:24:44.625Z,1012.38
2018-10-07T08:25:44.614Z,1012.41
2018-10-07T08:26:44.604Z,1012.40
2018-10-07T08:27:44.606Z,1012.45
2018-10-07T08:28:44.619Z,1012.40
2018-10-07T08:29:44.639Z,1012.45
2018-10-07T08:30:44.579Z,1012.47
2018-10-07T08:31:44.569Z,1012.49
2018-10-07T08:32:44.559Z,1012.49
2018-10-07T08:33:44.589Z,1012.55
2018-10-07T08:34:44.575Z,1012.52
2018-10-07T08:35:44.539Z,1012.53
2018-10-07T08:36:44.532Z,1012.56
2018-10-07T08:37:44.539Z,1012.64
2018-10-07T08:38:44.520Z,1012.59
2018-10-07T08:39:44.504Z,1012.68
2018-10-07T08:40:44.504Z,1012.67
2018-10-07T08:41:44.504Z,1012.68
2018-10-07T08:42:44.499Z,1012.69
2018-10-07T08:43:44.477Z,1012.69
2018-10-07T08:44:44.473Z,1012.71
2018-10-07T08:45:44.462Z,1012.67
2018-10-07T08:46:44.467Z,1012.63
2018-10-07T08:47:44.451Z,1012.67
2018-10-07T08:48:44.440Z,1012.70
2018-10-07T08:49:44.445Z,1012.72
2018-10-07T08:50:44.428Z,1012.72
2018-10-07T08:51:44.428Z,1012.78
2018-10-07T08:52:44.419Z,1012.74
2018-10-07T08:53:44.409Z,1012.78
2018-10-07T08:54:44.400Z,1012.77
2018-10-07T08:55:44.402Z,1012.75
2018-10-07T08:56:47.107Z,1012.80
2018-10-07T08:57:44.398Z,1012.79
2018-10-07T08:58:44.387Z,1012.83
2018-10-07T08:59:44.380Z,1012.75
2018-10-07T09:00:44.379Z,1012.72
2018-10-07T09:01:44.376Z,1012.78
2018-10-07T09:02:44.370Z,1012.85
2018-10-07T09:03:44.369Z,1012.87
2018-10-07T09:04:44.368Z,1012.93
2018-10-07T09:05:44.364Z,1012.97
2018-10-07T09:06:44.361Z,1012.94
2018-10-07T09:07:44.381Z,1013.00
2018-10-07T09:08:44.429Z,1013.01
2018-10-07T09:09:44.359Z,1013.08
2018-10-07T09:10:44.351Z,1013.00
2018-10-07T09:11:44.349Z,1013.03
2018-10-07T09:12:44.349Z,1013.06
2018-10-07T09:13:44.351Z,1013.07
2018-10-07T09:14:44.441Z,1013.02
2018-10-07T09:15:44.346Z,1013.06
2018-10-07T09:16:44.346Z,1013.00
2018-10-07T09:17:44.343Z,1013.02
2018-10-07T09:18:44.343Z,1013.05
2018-10-07T09:19:44.340Z,1013.01
2018-10-07T09:20:44.390Z,1013.03
2018-10-07T09:21:44.345Z,1013.00
2018-10-07T09:22:44.341Z,1013.02
2018-10-07T09:23:44.340Z,1013.02
2018-10-07T09:24:44.342Z,1013.06
2018-10-07T09:25:44.347Z,1013.08
2018-10-07T09:26:44.373Z,1013.08
2018-10-07T09:27:44.351Z,1013.08
2018-10-07T09:28:44.346Z,1013.06
2018-10-07T09:29:44.348Z,1013.10
2018-10-07T09:30:44.342Z,1013.14
2018-10-07T09:31:44.346Z,1013.06
2018-10-07T09:32:44.356Z,1013.07
2018-10-07T09:33:44.347Z,1013.05
2018-10-07T09:34:44.350Z,1013.09
2018-10-07T09:35:44.351Z,1013.11
2018-10-07T09:36:44.415Z,1013.12
2018-10-07T09:37:44.356Z,1013.12
2018-10-07T09:38:44.348Z,1013.17
2018-10-07T09:39:44.423Z,1013.17
2018-10-07T09:40:44.359Z,1013.22
2018-10-07T09:41:44.360Z,1013.19
2018-10-07T09:42:44.356Z,1013.17
2018-10-07T09:43:44.356Z,1013.20
2018-10-07T09:44:44.356Z,1013.22
2018-10-07T09:45:44.356Z,1013.30
2018-10-07T09:46:44.365Z,1013.31
2018-10-07T09:47:44.364Z,1013.34
2018-10-07T09:48:44.367Z,1013.31
2018-10-07T09:49:44.367Z,1013.33
2018-10-07T09:50:44.363Z,1013.37
2018-10-07T09:51:44.368Z,1013.42
2018-10-07T09:52:44.369Z,1013.39
2018-10-07T09:53:44.371Z,1013.38
2018-10-07T09:54:44.371Z,1013.39
2018-10-07T09:55:44.378Z,1013.39
2018-10-07T09:56:44.378Z,1013.41
2018-10-07T09:57:44.374Z,1013.42
2018-10-07T09:58:44.374Z,1013.41
2018-10-07T09:59:44.380Z,1013.44
2018-10-07T10:00:44.419Z,1013.45
2018-10-07T10:01:44.396Z,1013.45
2018-10-07T10:02:44.385Z,1013.43
2018-10-07T10:03:44.385Z,1013.42
2018-10-07T10:04:44.388Z,1013.40
2018-10-07T10:05:44.396Z,1013.44
2018-10-07T10:06:44.394Z,1013.46
2018-10-07T10:07:44.392Z,1013.48
2018-10-07T10:08:44.399Z,1013.49
2018-10-07T10:09:44.396Z,1013.51
2018-10-07T10:10:44.430Z,1013.46
2018-10-07T10:11:44.404Z,1013.53
2018-10-07T10:12:44.399Z,1013.53
2018-10-07T10:13:44.405Z,1013.52
2018-10-07T10:14:44.404Z,1013.52
2018-10-07T10:15:44.409Z,1013.57
2018-10-07T10:16:44.405Z,1013.55
2018-10-07T10:17:44.478Z,1013.55
2018-10-07T10:18:44.455Z,1013.53
2018-10-07T10:19:44.491Z,1013.55
2018-10-07T10:20:44.417Z,1013.52
2018-10-07T10:21:44.420Z,1013.54
2018-10-07T10:22:44.421Z,1013.53
2018-10-07T10:23:44.425Z,1013.49
2018-10-07T10:24:44.426Z,1013.57
2018-10-07T10:25:44.427Z,1013.58
2018-10-07T10:26:44.440Z,1013.60
2018-10-07T10:27:44.436Z,1013.58
2018-10-07T10:28:44.433Z,1013.62
2018-10-07T10:29:44.437Z,1013.58
2018-10-07T10:30:44.433Z,1013.62
2018-10-07T10:31:44.435Z,1013.54
2018-10-07T10:32:44.453Z,1013.54
2018-10-07T10:33:44.454Z,1013.56
2018-10-07T10:34:44.445Z,1013.56
2018-10-07T10:35:44.441Z,1013.57
2018-10-07T10:36:44.500Z,1013.59
2018-10-07T10:37:44.455Z,1013.60
2018-10-07T10:38:44.457Z,1013.57
2018-10-07T10:39:44.544Z,1013.63
2018-10-07T10:40:44.455Z,1013.62
2018-10-07T10:41:44.456Z,1013.56
2018-10-07T10:42:44.458Z,1013.63
2018-10-07T10:43:44.453Z,1013.68
2018-10-07T10:44:44.459Z,1013.71
2018-10-07T10:45:44.455Z,1013.73
2018-10-07T10:46:44.463Z,1013.78
2018-10-07T10:47:44.459Z,1013.75
2018-10-07T10:48:44.458Z,1013.80
2018-10-07T10:49:44.483Z,1013.72
2018-10-07T10:50:44.460Z,1013.78
2018-10-07T10:51:44.461Z,1013.76
2018-10-07T10:52:44.469Z,1013.78
2018-10-07T10:53:44.464Z,1013.73
2018-10-07T10:54:44.468Z,1013.77
2018-10-07T10:55:44.479Z,1013.78
2018-10-07T10:56:45.189Z,1013.79
2018-10-07T10:57:44.466Z,1013.76
2018-10-07T10:58:44.465Z,1013.80
2018-10-07T10:59:44.469Z,1013.68
2018-10-07T11:00:44.506Z,1013.73
2018-10-07T11:01:44.474Z,1013.75
2018-10-07T11:02:44.474Z,1013.80
2018-10-07T11:03:44.471Z,1013.78
2018-10-07T11:04:44.477Z,1013.80
2018-10-07T11:05:44.474Z,1013.70
2018-10-07T11:06:44.472Z,1013.78
2018-10-07T11:07:44.476Z,1013.81
2018-10-07T11:08:44.492Z,1013.75
2018-10-07T11:09:44.487Z,1013.76
2018-10-07T11:10:44.477Z,1013.76
2018-10-07T11:11:44.481Z,1013.79
2018-10-07T11:12:44.487Z,1013.75
2018-10-07T11:13:44.501Z,1013.81
2018-10-07T11:14:44.489Z,1013.77
2018-10-07T11:15:44.588Z,1013.79
2018-10-07T11:16:44.487Z,1013.75
2018-10-07T11:17:44.495Z,1013.79
2018-10-07T11:18:44.491Z,1013.78
2018-10-07T11:19:44.492Z,1013.73
2018-10-07T11:20:44.492Z,1013.73
2018-10-07T11:21:44.496Z,1013.72
2018-10-07T11:22:44.495Z,1013.73
2018-10-07T11:23:44.496Z,1013.70
2018-10-07T11:24:44.496Z,1013.67
2018-10-07T11:25:44.496Z,1013.66
2018-10-07T11:26:44.504Z,1013.69
2018-10-07T11:27:44.526Z,1013.63
2018-10-07T11:28:44.504Z,1013.62
2018-10-07T11:29:44.505Z,1013.60
2018-10-07T11:30:44.505Z,1013.55
2018-10-07T11:31:44.516Z,1013.55
2018-10-07T11:32:44.506Z,1013.54
2018-10-07T11:33:44.510Z,1013.55
2018-10-07T11:34:44.532Z,1013.59
2018-10-07T11:35:44.512Z,1013.56
2018-10-07T11:36:44.512Z,1013.55
2018-10-07T11:37:44.516Z,1013.61
2018-10-07T11:38:44.516Z,1013.58
2018-10-07T11:39:44.519Z,1013.66
2018-10-07T11:40:44.576Z,1013.58
2018-10-07T11:41:44.525Z,1013.61
2018-10-07T11:42:44.527Z,1013.54
2018-10-07T11:43:44.520Z,1013.59
2018-10-07T11:44:44.526Z,1013.55
2018-10-07T11:45:44.530Z,1013.51
2018-10-07T11:46:44.528Z,1013.51
2018-10-07T11:47:44.526Z,1013.55
2018-10-07T11:48:44.533Z,1013.50
2018-10-07T11:49:44.536Z,1013.48
2018-10-07T11:50:44.542Z,1013.47
2018-10-07T11:51:44.542Z,1013.46
2018-10-07T11:52:44.561Z,1013.46
2018-10-07T11:53:44.543Z,1013.46
2018-10-07T11:54:44.543Z,1013.45
2018-10-07T11:55:44.551Z,1013.49
2018-10-07T11:56:44.549Z,1013.50
2018-10-07T11:57:44.550Z,1013.43
2018-10-07T11:58:44.553Z,1013.42
2018-10-07T11:59:44.552Z,1013.41
2018-10-07T12:00:44.556Z,1013.39
2018-10-07T12:01:44.588Z,1013.37
2018-10-07T12:02:44.642Z,1013.38
2018-10-07T12:03:44.565Z,1013.41
2018-10-07T12:04:44.561Z,1013.36
2018-10-07T12:05:44.563Z,1013.41